sensor_id;sensor_type;location;lat;lon;timestamp;pressure;altitude;pressure_sealevel;temperature;humidity
61292;BME280;47165;42.664;23.368;2022-09-03T00:02:37;94975.59;;;17.97;74.94
61292;BME280;47165;42.664;23.368;2022-09-03T00:10:56;94971.00;;;17.68;75.85
61292;BME280;47165;42.664;23.368;2022-09-03T00:13:27;94995.53;;;17.59;76.43
61292;BME280;47165;42.664;23.368;2022-09-03T00:15:56;94977.38;;;17.86;75.78
61292;BME280;47165;42.664;23.368;2022-09-03T00:18:25;94969.44;;;17.86;74.92
61292;BME280;47165;42.664;23.368;2022-09-03T00:23:54;94974.81;;;18.16;73.35
61292;BME280;47165;42.664;23.368;2022-09-03T00:26:26;94970.41;;;18.26;73.18
61292;BME280;47165;42.664;23.368;2022-09-03T00:29:04;94972.75;;;18.29;72.66
61292;BME280;47165;42.664;23.368;2022-09-03T00:31:35;94970.66;;;18.13;73.18
61292;BME280;47165;42.664;23.368;2022-09-03T00:36:39;94976.25;;;18.29;72.34
61292;BME280;47165;42.664;23.368;2022-09-03T00:39:11;94974.91;;;17.95;73.75
61292;BME280;47165;42.664;23.368;2022-09-03T01:00:17;94980.56;;;17.90;73.45
61292;BME280;47165;42.664;23.368;2022-09-03T01:03:18;94977.44;;;18.06;72.62
61292;BME280;47165;42.664;23.368;2022-09-03T01:06:14;94976.34;;;18.18;72.39
61292;BME280;47165;42.664;23.368;2022-09-03T01:20:29;94970.47;;;17.74;73.36
61292;BME280;47165;42.664;23.368;2022-09-03T01:39:53;95000.81;;;17.59;74.13
61292;BME280;47165;42.664;23.368;2022-09-03T01:47:53;94990.38;;;17.78;73.43
61292;BME280;47165;42.664;23.368;2022-09-03T01:58:32;94993.59;;;17.61;74.02
61292;BME280;47165;42.664;23.368;2022-09-03T02:01:11;94993.00;;;17.78;73.50
61292;BME280;47165;42.664;23.368;2022-09-03T02:03:41;94983.06;;;17.92;73.08
61292;BME280;47165;42.664;23.368;2022-09-03T02:06:10;94992.81;;;17.91;72.79
61292;BME280;47165;42.664;23.368;2022-09-03T02:08:36;94986.69;;;17.69;73.37
61292;BME280;47165;42.664;23.368;2022-09-03T02:11:04;94986.03;;;17.77;73.24
61292;BME280;47165;42.664;23.368;2022-09-03T02:13:37;94985.28;;;17.86;72.75
61292;BME280;47165;42.664;23.368;2022-09-03T02:16:26;94994.81;;;17.99;72.08
61292;BME280;47165;42.664;23.368;2022-09-03T02:19:06;94998.69;;;17.95;72.03
61292;BME280;47165;42.664;23.368;2022-09-03T02:21:38;94998.63;;;17.85;72.30
61292;BME280;47165;42.664;23.368;2022-09-03T02:24:04;95003.50;;;17.89;72.29
61292;BME280;47165;42.664;23.368;2022-09-03T02:26:30;95007.50;;;17.84;72.56
61292;BME280;47165;42.664;23.368;2022-09-03T02:28:56;95002.41;;;17.92;72.36
61292;BME280;47165;42.664;23.368;2022-09-03T02:31:22;95006.16;;;17.89;71.68
61292;BME280;47165;42.664;23.368;2022-09-03T02:33:48;95008.13;;;17.97;71.49
61292;BME280;47165;42.664;23.368;2022-09-03T02:36:18;95003.28;;;17.81;72.14
61292;BME280;47165;42.664;23.368;2022-09-03T02:38:45;94996.34;;;17.80;72.04
61292;BME280;47165;42.664;23.368;2022-09-03T02:41:11;95004.09;;;17.72;72.59
61292;BME280;47165;42.664;23.368;2022-09-03T02:43:45;95002.78;;;17.87;71.95
61292;BME280;47165;42.664;23.368;2022-09-03T02:46:21;95011.03;;;17.73;72.00
61292;BME280;47165;42.664;23.368;2022-09-03T02:48:48;95021.06;;;17.79;72.04
61292;BME280;47165;42.664;23.368;2022-09-03T02:51:13;95018.66;;;17.87;71.76
61292;BME280;47165;42.664;23.368;2022-09-03T02:53:39;95012.53;;;17.66;72.63
61292;BME280;47165;42.664;23.368;2022-09-03T02:56:04;95014.66;;;17.72;72.33
61292;BME280;47165;42.664;23.368;2022-09-03T02:58:30;95016.50;;;17.81;72.01
61292;BME280;47165;42.664;23.368;2022-09-03T03:00:56;95028.28;;;17.77;72.06
61292;BME280;47165;42.664;23.368;2022-09-03T03:03:22;95026.81;;;17.63;72.32
61292;BME280;47165;42.664;23.368;2022-09-03T03:05:53;95015.44;;;17.63;72.17
61292;BME280;47165;42.664;23.368;2022-09-03T03:08:24;95010.72;;;17.66;72.13
61292;BME280;47165;42.664;23.368;2022-09-03T03:10:52;95013.38;;;17.66;72.16
61292;BME280;47165;42.664;23.368;2022-09-03T03:13:21;95020.63;;;17.53;72.43
61292;BME280;47165;42.664;23.368;2022-09-03T03:15:47;95014.72;;;17.61;71.88
61292;BME280;47165;42.664;23.368;2022-09-03T03:18:13;95010.44;;;17.69;71.72
61292;BME280;47165;42.664;23.368;2022-09-03T03:20:39;95006.91;;;17.80;71.34
61292;BME280;47165;42.664;23.368;2022-09-03T03:23:07;95007.75;;;17.81;71.31
61292;BME280;47165;42.664;23.368;2022-09-03T03:25:34;95006.66;;;17.83;71.13
61292;BME280;47165;42.664;23.368;2022-09-03T03:28:00;95007.03;;;17.79;71.19
61292;BME280;47165;42.664;23.368;2022-09-03T03:30:26;95005.84;;;17.83;71.31
61292;BME280;47165;42.664;23.368;2022-09-03T03:32:53;95010.25;;;17.82;71.21
61292;BME280;47165;42.664;23.368;2022-09-03T03:35:19;95009.50;;;17.92;70.79
61292;BME280;47165;42.664;23.368;2022-09-03T03:37:45;95012.13;;;17.70;71.51
61292;BME280;47165;42.664;23.368;2022-09-03T03:40:11;95012.72;;;17.53;72.18
61292;BME280;47165;42.664;23.368;2022-09-03T03:42:37;95010.44;;;17.69;71.81
61292;BME280;47165;42.664;23.368;2022-09-03T03:45:03;95014.50;;;17.74;71.39
61292;BME280;47165;42.664;23.368;2022-09-03T03:47:29;95017.47;;;17.80;71.10
61292;BME280;47165;42.664;23.368;2022-09-03T03:49:58;95018.13;;;17.73;71.53
61292;BME280;47165;42.664;23.368;2022-09-03T03:52:24;95008.56;;;17.81;71.27
61292;BME280;47165;42.664;23.368;2022-09-03T03:54:50;95013.06;;;17.60;71.73
61292;BME280;47165;42.664;23.368;2022-09-03T03:57:17;95011.13;;;17.62;71.98
61292;BME280;47165;42.664;23.368;2022-09-03T03:59:46;95015.50;;;17.73;71.54
61292;BME280;47165;42.664;23.368;2022-09-03T04:02:13;95023.75;;;17.58;72.03
61292;BME280;47165;42.664;23.368;2022-09-03T04:04:39;95022.63;;;17.61;71.73
61292;BME280;47165;42.664;23.368;2022-09-03T04:07:04;95021.22;;;17.57;71.98
61292;BME280;47165;42.664;23.368;2022-09-03T04:09:30;95021.34;;;17.34;72.39
61292;BME280;47165;42.664;23.368;2022-09-03T04:11:55;95028.94;;;17.27;73.22
61292;BME280;47165;42.664;23.368;2022-09-03T04:14:22;95013.91;;;17.39;72.58
61292;BME280;47165;42.664;23.368;2022-09-03T04:16:48;95020.22;;;17.27;73.32
61292;BME280;47165;42.664;23.368;2022-09-03T04:19:15;95015.63;;;17.50;72.43
61292;BME280;47165;42.664;23.368;2022-09-03T04:21:41;95021.16;;;17.26;73.58
61292;BME280;47165;42.664;23.368;2022-09-03T04:24:07;95023.69;;;17.48;72.22
61292;BME280;47165;42.664;23.368;2022-09-03T04:26:33;95020.47;;;17.66;71.60
61292;BME280;47165;42.664;23.368;2022-09-03T04:29:01;95026.25;;;17.60;71.90
61292;BME280;47165;42.664;23.368;2022-09-03T04:31:27;95022.00;;;17.68;71.63
61292;BME280;47165;42.664;23.368;2022-09-03T04:33:53;95028.56;;;17.74;71.14
61292;BME280;47165;42.664;23.368;2022-09-03T04:36:21;95031.16;;;17.85;70.89
61292;BME280;47165;42.664;23.368;2022-09-03T04:38:49;95039.25;;;17.94;70.77
61292;BME280;47165;42.664;23.368;2022-09-03T04:41:21;95044.72;;;18.02;70.35
61292;BME280;47165;42.664;23.368;2022-09-03T04:43:50;95042.19;;;17.79;70.91
61292;BME280;47165;42.664;23.368;2022-09-03T04:46:16;95052.41;;;17.84;71.15
61292;BME280;47165;42.664;23.368;2022-09-03T04:48:42;95052.41;;;17.63;71.48
61292;BME280;47165;42.664;23.368;2022-09-03T04:51:15;95051.94;;;17.79;71.13
61292;BME280;47165;42.664;23.368;2022-09-03T04:53:43;95057.34;;;17.56;71.93
61292;BME280;47165;42.664;23.368;2022-09-03T04:56:20;95065.16;;;17.79;71.46
61292;BME280;47165;42.664;23.368;2022-09-03T04:58:47;95071.19;;;17.27;73.06
61292;BME280;47165;42.664;23.368;2022-09-03T05:01:18;95072.72;;;17.51;72.79
61292;BME280;47165;42.664;23.368;2022-09-03T05:03:45;95066.63;;;17.72;72.14
61292;BME280;47165;42.664;23.368;2022-09-03T05:06:11;95078.19;;;17.38;73.09
61292;BME280;47165;42.664;23.368;2022-09-03T05:08:37;95084.69;;;17.34;73.68
61292;BME280;47165;42.664;23.368;2022-09-03T05:11:03;95085.38;;;17.47;72.96
61292;BME280;47165;42.664;23.368;2022-09-03T05:13:30;95080.03;;;17.59;72.49
61292;BME280;47165;42.664;23.368;2022-09-03T05:16:14;95085.19;;;17.28;73.05
61292;BME280;47165;42.664;23.368;2022-09-03T05:18:39;95073.41;;;17.43;72.84
61292;BME280;47165;42.664;23.368;2022-09-03T05:21:11;95074.22;;;17.65;72.12
61292;BME280;47165;42.664;23.368;2022-09-03T05:23:38;95080.41;;;17.75;71.80
61292;BME280;47165;42.664;23.368;2022-09-03T05:26:07;95076.94;;;17.75;71.36
61292;BME280;47165;42.664;23.368;2022-09-03T05:28:34;95084.47;;;17.79;71.57
61292;BME280;47165;42.664;23.368;2022-09-03T05:31:09;95081.81;;;17.91;71.32
61292;BME280;47165;42.664;23.368;2022-09-03T05:33:41;95083.75;;;17.98;71.05
61292;BME280;47165;42.664;23.368;2022-09-03T05:36:14;95080.22;;;18.09;70.87
61292;BME280;47165;42.664;23.368;2022-09-03T05:38:41;95086.88;;;18.03;70.65
61292;BME280;47165;42.664;23.368;2022-09-03T05:41:08;95066.78;;;17.70;71.31
61292;BME280;47165;42.664;23.368;2022-09-03T05:43:35;95086.41;;;17.77;71.21
61292;BME280;47165;42.664;23.368;2022-09-03T05:46:11;95096.84;;;17.79;71.18
61292;BME280;47165;42.664;23.368;2022-09-03T05:48:39;95094.84;;;17.92;70.51
61292;BME280;47165;42.664;23.368;2022-09-03T05:51:14;95094.84;;;17.92;70.31
61292;BME280;47165;42.664;23.368;2022-09-03T05:53:41;95090.63;;;18.01;70.06
61292;BME280;47165;42.664;23.368;2022-09-03T05:56:10;95100.19;;;18.02;70.11
61292;BME280;47165;42.664;23.368;2022-09-03T05:58:40;95094.97;;;18.12;69.50
61292;BME280;47165;42.664;23.368;2022-09-03T06:01:12;95098.38;;;18.23;69.45
61292;BME280;47165;42.664;23.368;2022-09-03T06:03:39;95096.28;;;18.17;69.38
61292;BME280;47165;42.664;23.368;2022-09-03T06:06:05;95098.56;;;18.32;68.92
61292;BME280;47165;42.664;23.368;2022-09-03T06:08:32;95101.91;;;18.34;68.32
61292;BME280;47165;42.664;23.368;2022-09-03T06:10:58;95100.41;;;18.41;68.40
61292;BME280;47165;42.664;23.368;2022-09-03T06:13:24;95092.91;;;18.46;68.08
61292;BME280;47165;42.664;23.368;2022-09-03T06:15:49;95110.38;;;18.37;68.23
61292;BME280;47165;42.664;23.368;2022-09-03T06:18:15;95112.03;;;18.28;68.34
61292;BME280;47165;42.664;23.368;2022-09-03T06:20:40;95105.69;;;18.41;68.00
61292;BME280;47165;42.664;23.368;2022-09-03T06:23:05;95104.16;;;18.38;67.62
61292;BME280;47165;42.664;23.368;2022-09-03T06:25:31;95100.56;;;18.49;67.35
61292;BME280;47165;42.664;23.368;2022-09-03T06:27:57;95103.50;;;18.46;67.18
61292;BME280;47165;42.664;23.368;2022-09-03T06:30:23;95107.97;;;18.55;66.95
61292;BME280;47165;42.664;23.368;2022-09-03T06:32:50;95107.72;;;18.58;66.81
61292;BME280;47165;42.664;23.368;2022-09-03T06:35:16;95116.44;;;18.49;67.59
61292;BME280;47165;42.664;23.368;2022-09-03T06:37:42;95111.06;;;18.60;67.58
61292;BME280;47165;42.664;23.368;2022-09-03T06:40:09;95116.72;;;18.56;67.22
61292;BME280;47165;42.664;23.368;2022-09-03T06:42:40;95113.59;;;18.72;66.49
61292;BME280;47165;42.664;23.368;2022-09-03T06:45:09;95111.06;;;18.60;66.73
61292;BME280;47165;42.664;23.368;2022-09-03T06:47:35;95108.88;;;18.75;66.58
61292;BME280;47165;42.664;23.368;2022-09-03T06:50:00;95121.63;;;18.91;66.04
61292;BME280;47165;42.664;23.368;2022-09-03T06:52:27;95116.78;;;19.06;65.89
61292;BME280;47165;42.664;23.368;2022-09-03T06:54:52;95120.16;;;19.18;65.41
61292;BME280;47165;42.664;23.368;2022-09-03T06:57:17;95122.94;;;19.26;64.92
61292;BME280;47165;42.664;23.368;2022-09-03T06:59:43;95120.72;;;19.31;64.80
61292;BME280;47165;42.664;23.368;2022-09-03T07:02:09;95128.09;;;19.37;65.20
61292;BME280;47165;42.664;23.368;2022-09-03T07:04:34;95123.19;;;19.03;66.23
61292;BME280;47165;42.664;23.368;2022-09-03T07:07:00;95124.19;;;19.32;66.09
61292;BME280;47165;42.664;23.368;2022-09-03T07:09:26;95124.06;;;19.43;65.07
61292;BME280;47165;42.664;23.368;2022-09-03T07:11:52;95129.09;;;19.56;64.57
61292;BME280;47165;42.664;23.368;2022-09-03T07:14:19;95125.19;;;19.60;64.37
61292;BME280;47165;42.664;23.368;2022-09-03T07:16:49;95120.59;;;19.62;63.97
61292;BME280;47165;42.664;23.368;2022-09-03T07:19:15;95134.41;;;19.65;64.17
61292;BME280;47165;42.664;23.368;2022-09-03T07:21:42;95133.25;;;19.29;64.91
61292;BME280;47165;42.664;23.368;2022-09-03T07:24:08;95139.06;;;19.13;65.96
61292;BME280;47165;42.664;23.368;2022-09-03T07:26:38;95136.81;;;18.99;66.11
61292;BME280;47165;42.664;23.368;2022-09-03T07:29:05;95134.75;;;19.02;65.84
61292;BME280;47165;42.664;23.368;2022-09-03T07:31:37;95150.53;;;19.14;65.97
61292;BME280;47165;42.664;23.368;2022-09-03T07:34:05;95157.22;;;19.18;65.54
61292;BME280;47165;42.664;23.368;2022-09-03T07:36:37;95153.88;;;19.35;65.57
61292;BME280;47165;42.664;23.368;2022-09-03T07:39:03;95151.13;;;19.46;64.55
61292;BME280;47165;42.664;23.368;2022-09-03T07:41:29;95154.75;;;19.65;64.24
61292;BME280;47165;42.664;23.368;2022-09-03T07:43:58;95153.94;;;19.84;63.83
61292;BME280;47165;42.664;23.368;2022-09-03T07:46:25;95159.50;;;20.00;63.43
61292;BME280;47165;42.664;23.368;2022-09-03T07:48:56;95158.63;;;20.19;63.76
61292;BME280;47165;42.664;23.368;2022-09-03T07:51:24;95157.22;;;20.35;63.39
61292;BME280;47165;42.664;23.368;2022-09-03T07:53:52;95166.69;;;20.47;61.62
61292;BME280;47165;42.664;23.368;2022-09-03T07:56:18;95156.41;;;20.24;60.99
61292;BME280;47165;42.664;23.368;2022-09-03T07:58:43;95158.25;;;20.14;61.39
61292;BME280;47165;42.664;23.368;2022-09-03T08:01:16;95163.13;;;20.19;61.89
61292;BME280;47165;42.664;23.368;2022-09-03T08:03:43;95155.56;;;20.24;62.44
61292;BME280;47165;42.664;23.368;2022-09-03T08:06:10;95162.84;;;19.93;62.72
61292;BME280;47165;42.664;23.368;2022-09-03T08:08:36;95154.72;;;20.14;62.54
61292;BME280;47165;42.664;23.368;2022-09-03T08:11:05;95165.59;;;20.30;62.16
61292;BME280;47165;42.664;23.368;2022-09-03T08:13:46;95167.41;;;20.20;61.12
61292;BME280;47165;42.664;23.368;2022-09-03T08:16:14;95178.44;;;20.25;60.84
61292;BME280;47165;42.664;23.368;2022-09-03T08:18:40;95170.75;;;20.32;60.85
61292;BME280;47165;42.664;23.368;2022-09-03T08:21:08;95167.25;;;20.41;61.28
61292;BME280;47165;42.664;23.368;2022-09-03T08:23:41;95163.00;;;20.58;61.21
61292;BME280;47165;42.664;23.368;2022-09-03T08:26:08;95171.22;;;20.74;60.81
61292;BME280;47165;42.664;23.368;2022-09-03T08:28:34;95163.72;;;20.50;60.72
61292;BME280;47165;42.664;23.368;2022-09-03T08:31:17;95170.25;;;20.18;61.09
61292;BME280;47165;42.664;23.368;2022-09-03T08:33:45;95166.97;;;20.44;60.38
61292;BME280;47165;42.664;23.368;2022-09-03T08:36:19;95160.38;;;20.67;60.36
61292;BME280;47165;42.664;23.368;2022-09-03T08:38:50;95163.28;;;20.64;59.85
61292;BME280;47165;42.664;23.368;2022-09-03T08:44:21;95153.09;;;20.97;60.32
61292;BME280;47165;42.664;23.368;2022-09-03T08:52:55;95147.97;;;21.41;58.53
61292;BME280;47165;42.664;23.368;2022-09-03T08:55:35;95150.63;;;21.41;57.76
61292;BME280;47165;42.664;23.368;2022-09-03T08:58:13;95156.34;;;21.19;58.36
61292;BME280;47165;42.664;23.368;2022-09-03T09:03:41;95154.69;;;21.45;57.71
61292;BME280;47165;42.664;23.368;2022-09-03T09:09:01;95156.28;;;21.74;57.02
61292;BME280;47165;42.664;23.368;2022-09-03T09:14:42;95152.16;;;21.80;56.19
61292;BME280;47165;42.664;23.368;2022-09-03T09:17:44;95161.81;;;21.99;56.55
61292;BME280;47165;42.664;23.368;2022-09-03T09:23:05;95156.09;;;21.94;56.21
61292;BME280;47165;42.664;23.368;2022-09-03T09:25:31;95153.84;;;21.99;56.08
61292;BME280;47165;42.664;23.368;2022-09-03T09:28:05;95157.59;;;22.14;56.41
61292;BME280;47165;42.664;23.368;2022-09-03T09:30:32;95165.53;;;22.06;55.85
61292;BME280;47165;42.664;23.368;2022-09-03T09:32:57;95166.78;;;22.20;54.59
61292;BME280;47165;42.664;23.368;2022-09-03T09:35:25;95159.19;;;22.25;55.42
61292;BME280;47165;42.664;23.368;2022-09-03T09:37:56;95146.50;;;22.37;55.00
61292;BME280;47165;42.664;23.368;2022-09-03T09:40:31;95153.59;;;22.54;54.82
61292;BME280;47165;42.664;23.368;2022-09-03T09:43:15;95147.13;;;22.57;53.95
61292;BME280;47165;42.664;23.368;2022-09-03T09:45:49;95159.31;;;22.67;53.87
61292;BME280;47165;42.664;23.368;2022-09-03T09:48:28;95152.69;;;22.72;53.49
61292;BME280;47165;42.664;23.368;2022-09-03T09:51:11;95156.41;;;22.79;52.90
61292;BME280;47165;42.664;23.368;2022-09-03T09:53:39;95160.22;;;22.84;53.85
61292;BME280;47165;42.664;23.368;2022-09-03T09:56:05;95159.59;;;22.90;53.28
61292;BME280;47165;42.664;23.368;2022-09-03T09:58:32;95161.44;;;22.90;53.38
61292;BME280;47165;42.664;23.368;2022-09-03T10:03:32;95162.53;;;23.05;53.75
61292;BME280;47165;42.664;23.368;2022-09-03T10:06:05;95160.84;;;23.04;53.10
61292;BME280;47165;42.664;23.368;2022-09-03T10:08:51;95162.94;;;22.93;53.32
61292;BME280;47165;42.664;23.368;2022-09-03T10:11:19;95156.75;;;23.18;53.49
61292;BME280;47165;42.664;23.368;2022-09-03T10:13:46;95151.78;;;23.32;53.78
61292;BME280;47165;42.664;23.368;2022-09-03T10:16:26;95158.28;;;23.29;51.92
61292;BME280;47165;42.664;23.368;2022-09-03T10:18:59;95162.97;;;23.35;52.22
61292;BME280;47165;42.664;23.368;2022-09-03T10:21:40;95151.38;;;23.53;52.58
61292;BME280;47165;42.664;23.368;2022-09-03T10:24:36;95154.06;;;23.69;53.10
61292;BME280;47165;42.664;23.368;2022-09-03T10:26:57;95151.72;;;23.74;51.64
61292;BME280;47165;42.664;23.368;2022-09-03T10:29:23;95146.25;;;23.84;51.46
61292;BME280;47165;42.664;23.368;2022-09-03T10:32:02;95152.78;;;23.98;51.80
61292;BME280;47165;42.664;23.368;2022-09-03T10:34:37;95142.13;;;23.98;51.32
61292;BME280;47165;42.664;23.368;2022-09-03T10:37:15;95153.44;;;24.24;52.34
61292;BME280;47165;42.664;23.368;2022-09-03T10:45:40;95148.56;;;24.36;50.84
61292;BME280;47165;42.664;23.368;2022-09-03T10:56:33;95149.66;;;24.91;50.37
61292;BME280;47165;42.664;23.368;2022-09-03T10:59:30;95147.31;;;24.96;48.09
61292;BME280;47165;42.664;23.368;2022-09-03T11:02:29;95141.09;;;25.04;48.15
61292;BME280;47165;42.664;23.368;2022-09-03T11:05:08;95135.22;;;25.17;47.25
61292;BME280;47165;42.664;23.368;2022-09-03T11:07:42;95150.56;;;24.59;47.72
61292;BME280;47165;42.664;23.368;2022-09-03T11:10:15;95139.78;;;24.92;47.21
61292;BME280;47165;42.664;23.368;2022-09-03T11:12:47;95133.91;;;25.13;47.42
61292;BME280;47165;42.664;23.368;2022-09-03T11:17:53;95149.47;;;25.40;45.90
61292;BME280;47165;42.664;23.368;2022-09-03T11:20:23;95147.72;;;25.56;46.12
61292;BME280;47165;42.664;23.368;2022-09-03T11:22:53;95142.13;;;25.65;45.90
61292;BME280;47165;42.664;23.368;2022-09-03T11:25:21;95139.31;;;25.90;45.23
61292;BME280;47165;42.664;23.368;2022-09-03T11:28:15;95153.53;;;26.14;45.18
61292;BME280;47165;42.664;23.368;2022-09-03T11:33:10;95137.81;;;26.10;44.16
61292;BME280;47165;42.664;23.368;2022-09-03T11:35:38;95135.66;;;26.29;43.56
61292;BME280;47165;42.664;23.368;2022-09-03T11:38:19;95135.63;;;26.52;43.59
61292;BME280;47165;42.664;23.368;2022-09-03T11:43:29;95142.31;;;27.01;42.61
61292;BME280;47165;42.664;23.368;2022-09-03T11:48:37;95131.22;;;27.70;40.55
61292;BME280;47165;42.664;23.368;2022-09-03T11:53:53;95137.69;;;28.97;37.46
61292;BME280;47165;42.664;23.368;2022-09-03T11:56:19;95137.81;;;29.17;36.41
61292;BME280;47165;42.664;23.368;2022-09-03T11:58:44;95130.94;;;29.56;36.91
61292;BME280;47165;42.664;23.368;2022-09-03T12:01:12;95123.16;;;29.94;35.88
61292;BME280;47165;42.664;23.368;2022-09-03T12:03:49;95124.50;;;30.38;35.75
61292;BME280;47165;42.664;23.368;2022-09-03T12:17:23;95110.31;;;29.76;35.24
61292;BME280;47165;42.664;23.368;2022-09-03T12:19:54;95118.97;;;28.25;36.76
61292;BME280;47165;42.664;23.368;2022-09-03T12:22:24;95118.66;;;28.42;37.32
61292;BME280;47165;42.664;23.368;2022-09-03T12:24:50;95110.50;;;29.20;35.47
61292;BME280;47165;42.664;23.368;2022-09-03T12:27:24;95096.03;;;29.89;34.56
61292;BME280;47165;42.664;23.368;2022-09-03T12:30:00;95095.69;;;30.52;34.29
61292;BME280;47165;42.664;23.368;2022-09-03T12:32:32;95099.22;;;30.46;33.46
61292;BME280;47165;42.664;23.368;2022-09-03T12:35:16;95099.03;;;31.19;33.73
61292;BME280;47165;42.664;23.368;2022-09-03T12:37:44;95101.31;;;31.74;32.96
61292;BME280;47165;42.664;23.368;2022-09-03T12:40:21;95105.69;;;32.07;31.58
61292;BME280;47165;42.664;23.368;2022-09-03T12:42:48;95111.34;;;31.99;31.76
61292;BME280;47165;42.664;23.368;2022-09-03T12:45:18;95104.09;;;31.93;31.51
61292;BME280;47165;42.664;23.368;2022-09-03T12:47:44;95105.13;;;31.60;31.66
61292;BME280;47165;42.664;23.368;2022-09-03T12:50:14;95102.03;;;30.98;32.55
61292;BME280;47165;42.664;23.368;2022-09-03T12:58:06;95080.53;;;30.51;32.29
61292;BME280;47165;42.664;23.368;2022-09-03T13:00:38;95083.75;;;31.06;31.82
61292;BME280;47165;42.664;23.368;2022-09-03T13:03:23;95091.06;;;31.83;31.50
61292;BME280;47165;42.664;23.368;2022-09-03T13:05:55;95087.19;;;32.36;30.94
61292;BME280;47165;42.664;23.368;2022-09-03T13:08:25;95084.66;;;32.84;30.15
61292;BME280;47165;42.664;23.368;2022-09-03T13:11:02;95074.97;;;33.32;29.78
61292;BME280;47165;42.664;23.368;2022-09-03T13:13:34;95075.16;;;33.37;28.50
61292;BME280;47165;42.664;23.368;2022-09-03T13:18:59;95075.56;;;33.53;27.57
61292;BME280;47165;42.664;23.368;2022-09-03T13:31:54;95058.84;;;34.16;26.69
61292;BME280;47165;42.664;23.368;2022-09-03T13:34:36;95065.28;;;33.06;27.59
61292;BME280;47165;42.664;23.368;2022-09-03T13:39:37;95060.56;;;31.44;30.58
61292;BME280;47165;42.664;23.368;2022-09-03T13:50:08;95057.31;;;30.57;31.21
61292;BME280;47165;42.664;23.368;2022-09-03T13:52:56;95057.31;;;30.50;31.58
61292;BME280;47165;42.664;23.368;2022-09-03T13:58:17;95054.41;;;30.25;32.18
61292;BME280;47165;42.664;23.368;2022-09-03T14:03:31;95050.81;;;30.91;31.11
61292;BME280;47165;42.664;23.368;2022-09-03T14:08:39;95067.44;;;30.75;31.09
61292;BME280;47165;42.664;23.368;2022-09-03T14:11:20;95060.56;;;30.72;30.90
61292;BME280;47165;42.664;23.368;2022-09-03T14:14:12;95057.94;;;30.59;30.30
61292;BME280;47165;42.664;23.368;2022-09-03T14:16:56;95054.63;;;30.37;30.98
61292;BME280;47165;42.664;23.368;2022-09-03T14:22:05;95066.75;;;31.06;30.77
61292;BME280;47165;42.664;23.368;2022-09-03T14:25:08;95066.31;;;31.54;29.95
61292;BME280;47165;42.664;23.368;2022-09-03T14:27:35;95065.06;;;31.88;29.41
61292;BME280;47165;42.664;23.368;2022-09-03T14:30:05;95054.06;;;31.90;29.56
61292;BME280;47165;42.664;23.368;2022-09-03T14:35:30;95062.22;;;31.45;29.93
61292;BME280;47165;42.664;23.368;2022-09-03T14:41:05;95061.38;;;32.40;29.47
61292;BME280;47165;42.664;23.368;2022-09-03T14:48:43;95054.75;;;30.95;31.32
61292;BME280;47165;42.664;23.368;2022-09-03T14:51:35;95053.06;;;31.07;30.74
61292;BME280;47165;42.664;23.368;2022-09-03T15:07:32;95055.78;;;34.24;28.31
61292;BME280;47165;42.664;23.368;2022-09-03T15:13:21;95059.41;;;33.46;30.18
61292;BME280;47165;42.664;23.368;2022-09-03T15:19:12;95064.03;;;32.90;31.28
61292;BME280;47165;42.664;23.368;2022-09-03T15:30:07;95076.66;;;31.96;33.87
61292;BME280;47165;42.664;23.368;2022-09-03T15:35:06;95077.50;;;31.96;33.85
61292;BME280;47165;42.664;23.368;2022-09-03T15:37:45;95065.69;;;31.59;34.18
61292;BME280;47165;42.664;23.368;2022-09-03T15:42:41;95072.56;;;30.96;35.93
61292;BME280;47165;42.664;23.368;2022-09-03T15:47:55;95091.88;;;30.80;35.58
61292;BME280;47165;42.664;23.368;2022-09-03T15:50:34;95094.00;;;30.11;36.80
61292;BME280;47165;42.664;23.368;2022-09-03T15:56:17;95102.34;;;29.55;38.94
61292;BME280;47165;42.664;23.368;2022-09-03T16:04:31;95106.84;;;30.09;38.43
61292;BME280;47165;42.664;23.368;2022-09-03T16:07:24;95097.69;;;29.83;37.72
61292;BME280;47165;42.664;23.368;2022-09-03T16:10:09;95104.59;;;29.44;38.43
61292;BME280;47165;42.664;23.368;2022-09-03T16:15:49;95107.00;;;29.87;37.94
61292;BME280;47165;42.664;23.368;2022-09-03T16:18:31;95111.81;;;29.99;37.71
61292;BME280;47165;42.664;23.368;2022-09-03T16:21:22;95115.47;;;29.71;37.96
61292;BME280;47165;42.664;23.368;2022-09-03T16:24:04;95128.94;;;28.88;38.78
61292;BME280;47165;42.664;23.368;2022-09-03T16:26:48;95136.84;;;28.40;39.67
61292;BME280;47165;42.664;23.368;2022-09-03T16:29:17;95142.44;;;27.95;40.48
61292;BME280;47165;42.664;23.368;2022-09-03T16:37:23;95146.09;;;27.06;42.88
61292;BME280;47165;42.664;23.368;2022-09-03T16:53:41;95168.63;;;26.06;45.24
61292;BME280;47165;42.664;23.368;2022-09-03T16:58:58;95154.59;;;26.04;45.54
61292;BME280;47165;42.664;23.368;2022-09-03T17:15:30;95184.22;;;25.72;46.63
61292;BME280;47165;42.664;23.368;2022-09-03T17:23:09;95196.56;;;25.49;46.84
61292;BME280;47165;42.664;23.368;2022-09-03T17:25:51;95195.94;;;25.39;47.08
61292;BME280;47165;42.664;23.368;2022-09-03T17:28:39;95201.50;;;25.29;47.29
61292;BME280;47165;42.664;23.368;2022-09-03T17:36:25;95216.41;;;24.99;48.01
61292;BME280;47165;42.664;23.368;2022-09-03T17:38:59;95225.47;;;24.90;48.50
61292;BME280;47165;42.664;23.368;2022-09-03T17:49:28;95233.69;;;24.64;48.88
61292;BME280;47165;42.664;23.368;2022-09-03T17:52:02;95242.88;;;24.53;48.89
61292;BME280;47165;42.664;23.368;2022-09-03T17:54:34;95243.84;;;24.36;49.30
61292;BME280;47165;42.664;23.368;2022-09-03T17:57:12;95248.19;;;24.28;49.09
61292;BME280;47165;42.664;23.368;2022-09-03T18:04:53;95259.31;;;24.16;49.21